Time;durP1;ratioP1;P1;durP2;ratioP2;P2;SDS_P1;SDS_P2;PMS_P1;PMS_P2;Temp;Humidity;BMP_temperature;BMP_pressure;BME280_temperature;BME280_humidity;BME280_pressure;Samples;Min_cycle;Max_cycle;Signal;HPM_P1;HPM_P2
2023/08/05 00:00:53;;;;;;;5.35;1.98;;;;;;;25.04;52.21;101789.91;5030798;28;20395;-72
2023/08/05 00:03:19;;;;;;;4.03;1.88;;;;;;;25.61;50.40;101772.41;5013101;28;20026;-72
2023/08/05 00:05:44;;;;;;;3.08;1.98;;;;;;;25.10;51.80;101778.88;5026056;28;20116;-71
2023/08/05 00:08:10;;;;;;;4.00;1.85;;;;;;;25.50;51.18;101771.25;5031894;28;20528;-72
2023/08/05 00:10:35;;;;;;;3.70;2.05;;;;;;;25.77;49.96;101775.06;5021144;28;20104;-71
2023/08/05 00:13:01;;;;;;;2.80;2.13;;;;;;;25.82;49.36;101773.81;5025986;28;20030;-72
2023/08/05 00:15:26;;;;;;;5.65;2.88;;;;;;;25.78;49.40;101774.97;5028952;28;20045;-72
2023/08/05 00:17:52;;;;;;;5.30;2.40;;;;;;;25.71;49.34;101778.97;5060852;28;20032;-72
2023/08/05 00:20:17;;;;;;;4.05;2.20;;;;;;;25.63;49.46;101765.19;5029731;28;20029;-72
2023/08/05 00:22:43;;;;;;;4.45;2.05;;;;;;;25.24;50.05;101768.22;5029925;28;20033;-72
2023/08/05 00:25:09;;;;;;;6.00;2.03;;;;;;;25.51;49.44;101762.28;5018884;28;20381;-72
2023/08/05 00:27:37;;;;;;;3.00;2.30;;;;;;;25.38;50.09;101759.44;5026753;28;20037;-72
2023/08/05 00:30:03;;;;;;;3.53;2.20;;;;;;;25.53;49.75;101760.34;5018101;28;20017;-72
2023/08/05 00:32:29;;;;;;;5.25;2.70;;;;;;;25.66;49.22;101765.84;5031614;28;20032;-72
2023/08/05 00:34:55;;;;;;;3.38;1.73;;;;;;;25.68;49.77;101768.44;5016047;28;20029;-72
2023/08/05 00:37:21;;;;;;;4.07;1.90;;;;;;;25.70;49.45;101756.66;5020536;28;20038;-72
2023/08/05 00:39:46;;;;;;;3.22;2.30;;;;;;;25.39;49.67;101754.97;5039666;28;20385;-72
2023/08/05 00:42:12;;;;;;;6.65;2.58;;;;;;;25.37;49.88;101748.81;5032864;28;20021;-72
2023/08/05 00:44:37;;;;;;;5.07;2.53;;;;;;;25.29;50.29;101740.34;5043716;28;20028;-72
2023/08/05 00:47:03;;;;;;;3.70;2.17;;;;;;;24.99;50.59;101743.81;5027035;28;20449;-72
2023/08/05 00:49:30;;;;;;;3.65;2.75;;;;;;;25.09;50.93;101744.16;5027515;28;20121;-71
2023/08/05 00:51:56;;;;;;;3.13;2.05;;;;;;;25.14;50.89;101726.94;5031474;28;20036;-72
2023/08/05 00:54:22;;;;;;;7.28;2.33;;;;;;;24.92;51.49;101727.25;5030741;28;20026;-71
2023/08/05 00:56:48;;;;;;;4.38;2.35;;;;;;;25.51;49.97;101735.50;5017844;28;20101;-72
2023/08/05 00:59:13;;;;;;;4.28;2.22;;;;;;;25.45;50.41;101738.53;5026361;28;20035;-72
2023/08/05 01:01:39;;;;;;;4.53;2.42;;;;;;;25.16;50.65;101733.03;5030912;28;20112;-72
2023/08/05 01:04:04;;;;;;;4.50;2.28;;;;;;;25.06;51.33;101734.53;5033376;28;20037;-72
2023/08/05 01:06:32;;;;;;;4.47;2.47;;;;;;;23.36;57.15;101738.97;5030827;28;20923;-72
2023/08/05 01:08:59;;;;;;;2.45;1.95;;;;;;;24.38;54.63;101738.22;5029154;28;20032;-72
2023/08/05 01:11:24;;;;;;;2.90;2.20;;;;;;;24.64;53.08;101730.63;5037997;28;20060;-72
2023/08/05 01:13:50;;;;;;;4.03;2.75;;;;;;;24.22;54.22;101744.41;5030156;28;20025;-71
2023/08/05 01:16:15;;;;;;;3.72;2.00;;;;;;;24.66;53.18;101736.75;5014903;28;20425;-72
2023/08/05 01:18:42;;;;;;;4.05;2.20;;;;;;;24.55;53.06;101735.50;5019613;28;20113;-71
2023/08/05 01:21:17;;;;;;;2.22;1.98;;;;;;;25.24;51.23;101729.94;5030407;28;20120;-72
2023/08/05 01:23:58;;;;;;;2.70;2.22;;;;;;;25.54;50.68;101729.97;5027755;28;20570;-72
2023/08/05 01:26:24;;;;;;;3.50;2.10;;;;;;;25.49;50.52;101726.69;5033115;28;20039;-72
2023/08/05 01:28:50;;;;;;;3.92;2.22;;;;;;;25.46;50.91;101731.34;5031981;28;20025;-72
2023/08/05 01:31:15;;;;;;;3.60;1.80;;;;;;;25.49;50.62;101737.41;5025108;28;20074;-72
2023/08/05 01:33:42;;;;;;;4.20;2.58;;;;;;;25.44;50.95;101739.47;5023348;28;20025;-71
2023/08/05 01:36:07;;;;;;;3.92;2.58;;;;;;;25.22;51.95;101727.34;5047648;28;20029;-72
2023/08/05 01:38:33;;;;;;;3.83;2.20;;;;;;;25.40;51.49;101727.22;5025520;28;20029;-72
2023/08/05 01:40:59;;;;;;;3.58;2.22;;;;;;;25.40;51.56;101725.44;5046119;28;20397;-72
2023/08/05 01:43:24;;;;;;;5.43;2.33;;;;;;;25.08;52.08;101718.38;5027151;28;20033;-72
2023/08/05 01:45:50;;;;;;;4.53;2.30;;;;;;;25.36;51.67;101723.00;5025481;28;20394;-71
2023/08/05 01:48:15;;;;;;;4.30;2.28;;;;;;;25.22;52.17;101724.66;5017293;28;20087;-71
2023/08/05 01:50:41;;;;;;;4.07;2.08;;;;;;;24.73;53.11;101722.13;5025902;28;20048;-71
2023/08/05 01:53:06;;;;;;;6.78;2.55;;;;;;;24.77;53.16;101712.09;5022659;28;20032;-72
2023/08/05 01:55:31;;;;;;;4.95;2.67;;;;;;;24.65;53.25;101705.66;5031824;28;20049;-70
2023/08/05 01:57:57;;;;;;;6.93;2.63;;;;;;;25.24;52.10;101711.19;5023294;28;20065;-72
2023/08/05 02:00:22;;;;;;;3.05;2.20;;;;;;;25.27;52.09;101704.81;5030864;28;20559;-72
2023/08/05 02:02:48;;;;;;;10.75;2.58;;;;;;;25.59;51.04;101700.25;5029756;28;20489;-72
2023/08/05 02:05:13;;;;;;;3.55;2.33;;;;;;;25.54;50.98;101692.50;5030213;28;20478;-71
2023/08/05 02:07:38;;;;;;;6.47;1.98;;;;;;;24.03;54.74;101706.28;5027889;28;20026;-72
2023/08/05 02:10:04;;;;;;;6.65;2.30;;;;;;;24.43;54.28;101698.78;5028830;28;20017;-71
2023/08/05 02:12:30;;;;;;;2.05;1.85;;;;;;;24.91;53.14;101698.81;5045509;28;20557;-72
2023/08/05 02:14:55;;;;;;;5.13;2.35;;;;;;;25.39;51.51;101704.13;5030289;28;20029;-72
2023/08/05 02:17:21;;;;;;;4.20;1.90;;;;;;;25.64;51.00;101700.00;5027074;28;20220;-72
2023/08/05 02:19:47;;;;;;;4.60;2.05;;;;;;;25.28;51.25;101707.41;5028872;28;20098;-71
2023/08/05 02:22:12;;;;;;;5.30;2.00;;;;;;;25.18;52.34;101704.41;5027583;28;20029;-71
2023/08/05 02:24:37;;;;;;;2.05;1.77;;;;;;;25.54;51.25;101703.22;5043129;28;20511;-73
2023/08/05 02:27:04;;;;;;;3.05;2.30;;;;;;;25.49;51.18;101705.28;5026276;28;20520;-72
2023/08/05 02:29:29;;;;;;;2.35;2.03;;;;;;;25.24;52.20;101697.81;5031779;28;20033;-72
2023/08/05 02:31:54;;;;;;;4.50;2.30;;;;;;;25.69;50.92;101687.16;5030733;28;20072;-71
2023/08/05 02:34:20;;;;;;;2.95;2.20;;;;;;;25.46;51.21;101676.03;5034893;28;20037;-72
2023/08/05 02:36:45;;;;;;;3.75;2.75;;;;;;;25.96;50.26;101665.03;5027773;28;20029;-72
2023/08/05 02:39:11;;;;;;;2.53;1.80;;;;;;;25.91;50.09;101658.13;5026510;28;20034;-72
2023/08/05 02:41:36;;;;;;;8.00;2.28;;;;;;;25.22;51.76;101655.13;5030003;28;20060;-71
2023/08/05 02:44:02;;;;;;;3.33;2.28;;;;;;;25.63;50.89;101653.59;5016890;28;20068;-72
2023/08/05 02:46:27;;;;;;;3.55;2.47;;;;;;;25.75;50.24;101657.34;5026247;28;20087;-71
2023/08/05 02:48:52;;;;;;;4.15;2.42;;;;;;;25.60;50.77;101653.78;5025873;28;20090;-72
2023/08/05 02:51:18;;;;;;;5.30;2.40;;;;;;;25.80;49.99;101657.94;5039679;28;20029;-72
2023/08/05 02:53:44;;;;;;;3.53;2.33;;;;;;;25.10;51.85;101647.81;5012847;28;20022;-72
2023/08/05 02:56:09;;;;;;;3.95;2.80;;;;;;;25.28;51.65;101647.66;5062628;28;20048;-72
2023/08/05 02:58:35;;;;;;;6.18;2.78;;;;;;;25.11;51.84;101646.00;5034686;28;20032;-71
2023/08/05 03:01:08;;;;;;;5.43;2.80;;;;;;;24.55;53.30;101630.41;5031060;28;20037;-72
2023/08/05 03:03:35;;;;;;;4.68;2.58;;;;;;;24.86;52.82;101626.88;5030601;28;20528;-72
2023/08/05 03:06:00;;;;;;;4.25;2.85;;;;;;;24.02;55.08;101621.78;5046525;28;20025;-72
2023/08/05 03:08:26;;;;;;;4.50;2.70;;;;;;;24.39;54.50;101611.72;5033336;28;20429;-72
2023/08/05 03:11:01;;;;;;;3.47;2.28;;;;;;;24.75;53.34;101607.94;5049449;28;20044;-72
2023/08/05 03:13:27;;;;;;;5.40;2.42;;;;;;;24.54;53.31;101610.00;5033923;28;20079;-72
2023/08/05 03:15:53;;;;;;;4.13;2.67;;;;;;;24.42;53.89;101611.56;5013106;28;20433;-72
2023/08/05 03:18:19;;;;;;;2.65;2.28;;;;;;;24.83;52.73;101616.38;5032134;28;20041;-71
2023/08/05 03:20:47;;;;;;;6.40;2.72;;;;;;;24.29;53.92;101622.06;5023449;28;20044;-72
2023/08/05 03:23:13;;;;;;;4.63;2.30;;;;;;;24.72;53.04;101624.16;5029078;28;20028;-72
2023/08/05 03:25:38;;;;;;;5.93;2.55;;;;;;;24.18;54.60;101620.00;5031426;28;20044;-72
2023/08/05 03:28:04;;;;;;;6.10;2.55;;;;;;;24.56;53.21;101614.31;5030322;28;20052;-72
2023/08/05 03:30:29;;;;;;;5.05;2.80;;;;;;;24.74;52.77;101616.91;5019507;28;20389;-72
2023/08/05 03:32:55;;;;;;;6.82;3.03;;;;;;;24.53;52.94;101614.47;5028699;28;20029;-71
2023/08/05 03:35:20;;;;;;;5.35;3.00;;;;;;;24.35;53.43;101607.50;5028057;28;20565;-72
2023/08/05 03:37:46;;;;;;;6.05;3.05;;;;;;;24.10;53.80;101621.34;5030932;28;20036;-71
2023/08/05 03:40:13;;;;;;;4.43;2.65;;;;;;;23.76;55.20;101618.66;5018638;28;20049;-72
2023/08/05 03:42:39;;;;;;;7.22;3.08;;;;;;;24.26;53.92;101616.03;5027909;28;20474;-71
2023/08/05 03:45:06;;;;;;;5.43;3.38;;;;;;;23.96;54.35;101616.75;5013557;28;20120;-72
2023/08/05 03:47:32;;;;;;;4.85;2.83;;;;;;;24.17;54.00;101609.41;5044114;28;20025;-72
2023/08/05 03:49:57;;;;;;;8.52;3.13;;;;;;;24.67;52.52;101599.50;5017106;28;20028;-72
2023/08/05 03:52:26;;;;;;;4.57;2.97;;;;;;;24.65;52.52;101590.72;5041104;28;20108;-71
2023/08/05 03:54:51;;;;;;;5.13;3.10;;;;;;;24.02;54.05;101573.72;5019076;28;20407;-72
2023/08/05 03:57:17;;;;;;;6.30;2.90;;;;;;;24.51;53.07;101573.63;5009984;28;20049;-72
2023/08/05 03:59:42;;;;;;;6.80;2.53;;;;;;;24.65;53.16;101567.53;5009797;28;20493;-72
2023/08/05 04:02:08;;;;;;;5.35;3.08;;;;;;;24.87;51.88;101564.44;5026836;28;20522;-72
2023/08/05 04:04:33;;;;;;;8.00;2.50;;;;;;;24.82;52.56;101557.66;5026941;28;20037;-72
2023/08/05 04:06:59;;;;;;;6.78;3.15;;;;;;;24.58;52.61;101555.44;5041970;28;20454;-72
2023/08/05 04:09:25;;;;;;;6.75;2.60;;;;;;;24.00;53.73;101551.56;5012842;28;20057;-72
2023/08/05 04:11:51;;;;;;;5.65;3.00;;;;;;;23.90;54.15;101561.06;5024801;28;20034;-72
2023/08/05 04:14:20;;;;;;;5.70;3.30;;;;;;;24.24;53.92;101553.84;5014287;28;20039;-70
2023/08/05 04:16:47;;;;;;;4.47;2.75;;;;;;;24.34;53.45;101547.88;5029843;28;20032;-71
2023/08/05 04:19:17;;;;;;;7.38;3.53;;;;;;;24.11;54.34;101543.84;5028556;28;20389;-72
2023/08/05 04:21:46;;;;;;;5.38;3.47;;;;;;;24.16;53.59;101544.44;5029879;28;20027;-72
2023/08/05 04:24:13;;;;;;;7.68;3.42;;;;;;;23.99;54.47;101548.06;5044504;28;20021;-72
2023/08/05 04:26:40;;;;;;;8.40;3.47;;;;;;;24.41;53.56;101545.72;5012250;28;20481;-71
2023/08/05 04:29:06;;;;;;;5.00;3.65;;;;;;;24.56;52.73;101536.84;5015648;28;20482;-71
2023/08/05 04:31:31;;;;;;;14.13;3.33;;;;;;;23.82;55.13;101538.28;5025265;28;20026;-71
2023/08/05 04:33:57;;;;;;;8.25;4.15;;;;;;;23.77;55.57;101539.44;5034911;28;20025;-71
2023/08/05 04:36:22;;;;;;;8.88;3.92;;;;;;;24.17;54.61;101531.97;5030906;28;20489;-72
2023/08/05 04:38:47;;;;;;;5.90;3.30;;;;;;;23.67;55.69;101533.75;5022210;28;20056;-72
2023/08/05 04:41:13;;;;;;;5.88;3.17;;;;;;;24.18;54.67;101539.00;5037915;28;20029;-72
2023/08/05 04:43:38;;;;;;;8.05;3.70;;;;;;;24.04;54.72;101542.44;5022892;28;20030;-71
2023/08/05 04:46:04;;;;;;;6.28;4.10;;;;;;;24.18;54.24;101542.56;5017191;28;20150;-71
2023/08/05 04:48:29;;;;;;;8.18;3.80;;;;;;;24.45;53.36;101536.56;5030540;28;20036;-72
2023/08/05 04:50:55;;;;;;;7.00;4.25;;;;;;;24.22;54.25;101530.75;5031442;28;20029;-72
2023/08/05 04:53:20;;;;;;;7.43;3.90;;;;;;;23.94;55.84;101520.75;5031952;28;20028;-72
2023/08/05 04:55:46;;;;;;;8.68;4.35;;;;;;;23.96;56.03;101509.97;5036210;28;20482;-72
2023/08/05 04:58:11;;;;;;;6.72;3.90;;;;;;;24.15;55.17;101518.69;5027846;28;20026;-72
2023/08/05 05:00:37;;;;;;;7.47;4.00;;;;;;;23.94;56.11;101514.56;5011338;28;20026;-72
2023/08/05 05:03:03;;;;;;;10.57;3.97;;;;;;;24.11;55.10;101516.25;5050705;28;20119;-72
2023/08/05 05:05:29;;;;;;;5.80;4.15;;;;;;;23.82;56.68;101516.94;5049084;28;20024;-72
2023/08/05 05:07:54;;;;;;;9.77;4.25;;;;;;;23.47;57.57;101522.38;5043538;28;20475;-71
2023/08/05 05:10:19;;;;;;;7.78;4.38;;;;;;;23.83;56.68;101507.09;5012835;28;20148;-72
2023/08/05 05:12:45;;;;;;;6.47;3.97;;;;;;;23.66;56.84;101505.38;5022515;28;20244;-72
2023/08/05 05:15:10;;;;;;;7.18;3.90;;;;;;;23.99;56.08;101508.00;5031477;28;20047;-72
2023/08/05 05:17:36;;;;;;;10.55;4.95;;;;;;;24.44;54.22;101508.16;5015309;28;20029;-71
2023/08/05 05:20:04;;;;;;;9.48;4.63;;;;;;;23.87;56.41;101498.84;5024927;28;20112;-73
2023/08/05 05:22:30;;;;;;;8.32;4.68;;;;;;;24.47;54.86;101497.28;5024921;28;20025;-72
2023/08/05 05:24:55;;;;;;;7.45;4.60;;;;;;;24.21;55.19;101504.13;5026402;28;20654;-72
2023/08/05 05:27:21;;;;;;;8.65;4.68;;;;;;;24.17;55.52;101495.41;5021353;28;20029;-72
2023/08/05 05:29:46;;;;;;;8.07;4.15;;;;;;;24.18;55.92;101497.16;5026318;28;20272;-72
2023/08/05 05:32:12;;;;;;;12.70;4.28;;;;;;;23.84;55.86;101490.16;5026643;28;20486;-72
2023/08/05 05:34:37;;;;;;;9.65;4.00;;;;;;;23.92;56.17;101487.94;5029609;28;20070;-72
2023/08/05 05:37:03;;;;;;;6.57;4.13;;;;;;;24.19;56.35;101482.84;5030467;28;20492;-72
2023/08/05 05:39:28;;;;;;;5.75;3.63;;;;;;;24.02;56.78;101490.97;5033233;28;20025;-72
2023/08/05 05:41:55;;;;;;;7.80;3.25;;;;;;;23.15;59.22;101474.28;5024712;28;20022;-72
2023/08/05 05:44:23;;;;;;;6.70;3.10;;;;;;;23.71;57.90;101471.28;5031097;28;20041;-72
2023/08/05 05:46:49;;;;;;;8.73;4.10;;;;;;;24.43;55.16;101469.03;5026120;28;20033;-71
2023/08/05 05:49:18;;;;;;;6.38;3.70;;;;;;;23.87;56.73;101471.28;5011969;28;20026;-71
2023/08/05 05:51:45;;;;;;;5.35;3.10;;;;;;;24.10;56.83;101471.81;5026816;28;20040;-72
2023/08/05 05:54:11;;;;;;;5.20;3.28;;;;;;;24.46;55.68;101468.84;5045630;28;20041;-72
2023/08/05 05:56:37;;;;;;;4.90;3.65;;;;;;;24.31;56.26;101459.91;5028086;28;20053;-72
2023/08/05 05:59:02;;;;;;;7.53;4.25;;;;;;;24.22;56.08;101461.31;5034706;28;20025;-71
2023/08/05 06:01:28;;;;;;;6.25;3.75;;;;;;;24.46;55.74;101468.84;5029339;28;20524;-72
2023/08/05 06:03:53;;;;;;;6.35;3.40;;;;;;;23.85;57.18;101470.50;5023413;28;20029;-72
2023/08/05 06:06:18;;;;;;;7.18;2.92;;;;;;;23.22;60.21;101469.50;5016715;28;20160;-72
2023/08/05 06:08:44;;;;;;;5.00;2.88;;;;;;;23.71;58.76;101472.16;5029545;28;20029;-71
2023/08/05 06:11:10;;;;;;;7.28;3.38;;;;;;;23.44;60.31;101471.84;5029473;28;20028;-72
2023/08/05 06:13:36;;;;;;;6.95;3.85;;;;;;;23.50;60.25;101470.66;5033590;28;20021;-72
2023/08/05 06:16:02;;;;;;;4.18;2.75;;;;;;;22.87;63.21;101473.03;5031781;28;20539;-72
2023/08/05 06:18:27;;;;;;;11.75;3.10;;;;;;;23.20;61.62;101466.91;5022757;28;20030;-72
2023/08/05 06:20:53;;;;;;;6.75;3.10;;;;;;;22.76;62.75;101472.69;5026871;28;20026;-72
2023/08/05 06:23:18;;;;;;;4.93;3.35;;;;;;;23.64;59.87;101467.22;5018718;28;20017;-72
2023/08/05 06:25:45;;;;;;;6.28;3.20;;;;;;;23.41;60.88;101458.69;5023863;28;20102;-72
2023/08/05 06:28:11;;;;;;;6.80;3.25;;;;;;;24.27;57.70;101452.16;5035295;28;20032;-72
2023/08/05 06:30:44;;;;;;;6.38;3.17;;;;;;;24.30;57.14;101458.16;5027947;28;20021;-72
2023/08/05 06:33:10;;;;;;;11.68;3.05;;;;;;;25.03;55.19;101448.56;5029663;28;20037;-72
2023/08/05 06:35:36;;;;;;;4.40;2.75;;;;;;;24.96;54.56;101441.88;5029406;28;20034;-71
2023/08/05 06:38:01;;;;;;;4.05;2.60;;;;;;;25.43;53.04;101442.56;5026349;28;20029;-72
2023/08/05 06:40:27;;;;;;;4.68;3.05;;;;;;;25.48;52.88;101441.31;5030028;28;20030;-72
2023/08/05 06:42:52;;;;;;;4.60;2.67;;;;;;;25.06;53.80;101437.69;5025980;28;20148;-72
2023/08/05 06:45:18;;;;;;;3.67;2.28;;;;;;;25.41;53.25;101434.63;5026279;28;20029;-72
2023/08/05 06:47:43;;;;;;;6.35;2.60;;;;;;;25.36;53.26;101442.09;5041694;28;20029;-72
2023/08/05 06:50:09;;;;;;;8.48;2.58;;;;;;;24.77;54.04;101440.34;5049754;28;20431;-72
2023/08/05 06:52:35;;;;;;;3.58;2.30;;;;;;;25.29;53.03;101424.69;5016386;28;20034;-71
2023/08/05 06:55:03;;;;;;;4.10;2.40;;;;;;;25.27;52.14;101421.25;5033691;28;20093;-71
2023/08/05 06:57:29;;;;;;;4.95;2.10;;;;;;;25.93;50.79;101424.22;5027959;28;20375;-72
2023/08/05 06:59:55;;;;;;;5.07;2.67;;;;;;;25.94;50.39;101425.91;5030817;28;20095;-72
2023/08/05 07:02:20;;;;;;;4.60;2.28;;;;;;;27.58;46.70;101421.81;5029736;28;20029;-72
2023/08/05 07:04:45;;;;;;;4.03;2.30;;;;;;;27.37;46.19;101418.03;5026736;28;20079;-72
2023/08/05 07:07:11;;;;;;;3.85;2.55;;;;;;;25.72;48.86;101427.34;5040663;28;20029;-72
2023/08/05 07:09:36;;;;;;;5.68;2.42;;;;;;;26.82;47.43;101425.41;5025602;28;20041;-72
2023/08/05 07:12:02;;;;;;;7.63;2.90;;;;;;;24.96;49.36;101420.47;5029931;28;20018;-71
2023/08/05 07:14:28;;;;;;;6.03;3.33;;;;;;;25.14;50.29;101421.16;5029964;28;20029;-71
2023/08/05 07:16:53;;;;;;;5.35;3.42;;;;;;;24.48;52.55;101421.53;5024816;28;20096;-71
2023/08/05 07:19:18;;;;;;;5.85;2.92;;;;;;;25.16;50.57;101406.72;5025006;28;20037;-72
2023/08/05 07:21:44;;;;;;;5.78;2.83;;;;;;;25.81;49.54;101397.25;5019844;28;20499;-72
2023/08/05 07:24:09;;;;;;;6.93;3.42;;;;;;;25.26;50.09;101398.97;5035537;28;20037;-72
2023/08/05 07:26:37;;;;;;;7.47;3.72;;;;;;;25.05;51.28;101393.19;5028880;28;20041;-72
2023/08/05 07:29:02;;;;;;;5.25;2.90;;;;;;;25.34;50.70;101395.88;5021459;28;20047;-73
2023/08/05 07:31:28;;;;;;;8.27;3.63;;;;;;;25.23;50.92;101393.84;5023233;28;20481;-72
2023/08/05 07:33:53;;;;;;;4.85;2.95;;;;;;;25.60;48.70;101385.31;5028899;28;20338;-72
2023/08/05 07:36:22;;;;;;;4.15;2.92;;;;;;;25.79;48.51;101390.28;5036313;28;20060;-72
2023/08/05 07:38:50;;;;;;;4.93;3.45;;;;;;;25.26;50.06;101387.44;5027200;28;20029;-72
2023/08/05 07:41:16;;;;;;;7.57;3.22;;;;;;;24.77;49.85;101386.00;5017712;28;20066;-72
2023/08/05 07:43:42;;;;;;;10.18;4.03;;;;;;;25.19;50.00;101371.75;5035711;28;20033;-72
2023/08/05 07:46:11;;;;;;;5.25;3.28;;;;;;;26.08;48.79;101369.66;5030484;28;20033;-72
2023/08/05 07:48:39;;;;;;;5.97;3.30;;;;;;;26.66;47.14;101370.16;5026937;28;20065;-73
2023/08/05 07:51:06;;;;;;;5.55;2.72;;;;;;;26.62;46.01;101373.16;5028494;28;20025;-72
2023/08/05 07:53:35;;;;;;;4.13;2.70;;;;;;;26.55;46.22;101365.53;5026474;28;20048;-73
2023/08/05 07:56:10;;;;;;;3.95;2.47;;;;;;;26.37;46.42;101369.50;5014793;28;20045;-72
2023/08/05 07:58:40;;;;;;;4.57;2.42;;;;;;;26.88;44.54;101369.53;5019704;28;20032;-72
2023/08/05 08:01:07;;;;;;;4.28;2.67;;;;;;;27.25;44.32;101361.53;5024083;28;20500;-72
2023/08/05 08:03:32;;;;;;;4.78;2.83;;;;;;;27.62;43.83;101349.97;5028847;28;20539;-74
2023/08/05 08:05:58;;;;;;;4.82;2.22;;;;;;;27.19;43.08;101350.38;5025064;28;20021;-72
2023/08/05 08:08:24;;;;;;;2.83;1.92;;;;;;;25.29;47.51;101341.75;5027311;28;20049;-71
2023/08/05 08:10:50;;;;;;;3.40;1.92;;;;;;;25.67;46.33;101349.16;5029538;28;20456;-72
2023/08/05 08:13:15;;;;;;;6.07;2.25;;;;;;;26.75;45.05;101347.25;5031590;28;20041;-72
2023/08/05 08:15:41;;;;;;;5.47;2.38;;;;;;;24.62;49.16;101339.69;5022772;28;21164;-72
2023/08/05 08:18:06;;;;;;;3.05;2.67;;;;;;;26.63;45.87;101332.00;5018333;28;20052;-72
2023/08/05 08:20:32;;;;;;;5.65;2.55;;;;;;;25.17;47.94;101336.25;5023662;28;20033;-72
2023/08/05 08:22:57;;;;;;;4.28;2.58;;;;;;;26.28;46.81;101327.25;5029461;28;20044;-72
2023/08/05 08:25:23;;;;;;;5.45;2.70;;;;;;;25.91;46.63;101331.44;5040960;28;20087;-71
2023/08/05 08:27:48;;;;;;;4.68;2.72;;;;;;;26.07;47.32;101325.09;5031613;28;20017;-71
2023/08/05 08:30:14;;;;;;;6.78;2.72;;;;;;;26.39;46.74;101322.00;5028687;28;20068;-71
2023/08/05 08:32:39;;;;;;;7.10;2.50;;;;;;;26.02;46.53;101316.50;5032244;28;20028;-71
2023/08/05 08:35:05;;;;;;;4.03;2.30;;;;;;;26.26;46.43;101318.47;5029934;28;20064;-71
2023/08/05 08:37:30;;;;;;;3.67;2.55;;;;;;;26.81;45.60;101308.44;5028288;28;20037;-72
2023/08/05 08:39:56;;;;;;;3.22;2.30;;;;;;;26.56;46.44;101297.56;5030018;28;20021;-71
2023/08/05 08:42:24;;;;;;;6.15;3.33;;;;;;;26.41;47.03;101302.19;5030919;28;20121;-71
2023/08/05 08:44:51;;;;;;;4.45;2.78;;;;;;;26.38;46.54;101296.19;5012761;28;20092;-71
2023/08/05 08:47:17;;;;;;;6.35;3.05;;;;;;;25.72;46.74;101290.81;5032278;28;20032;-71
2023/08/05 08:49:46;;;;;;;5.18;2.65;;;;;;;25.70;48.00;101290.06;5031323;28;20059;-71
2023/08/05 08:52:14;;;;;;;7.25;3.25;;;;;;;25.79;48.27;101289.44;5049335;28;20068;-71
2023/08/05 08:54:39;;;;;;;3.67;2.88;;;;;;;26.26;47.18;101281.81;5033247;28;20438;-71
2023/08/05 08:57:05;;;;;;;5.45;3.28;;;;;;;25.39;48.84;101286.75;5035333;28;20049;-73
2023/08/05 08:59:32;;;;;;;5.57;3.25;;;;;;;25.89;47.91;101271.78;5031740;28;20041;-72
2023/08/05 09:01:58;;;;;;;4.70;2.97;;;;;;;26.68;46.84;101265.50;5031902;28;20048;-71
2023/08/05 09:04:29;;;;;;;6.93;2.90;;;;;;;25.80;48.15;101263.50;5034214;28;20033;-72
2023/08/05 09:06:56;;;;;;;6.85;3.70;;;;;;;25.71;47.65;101265.00;5029805;28;20465;-71
2023/08/05 09:09:21;;;;;;;7.28;3.33;;;;;;;25.20;50.13;101269.16;5028777;28;20397;-72
2023/08/05 09:11:47;;;;;;;7.28;3.40;;;;;;;25.54;49.06;101267.00;5029741;28;20018;-72
2023/08/05 09:14:16;;;;;;;5.00;3.22;;;;;;;25.58;49.04;101264.94;5030219;28;20057;-72
2023/08/05 09:17:00;;;;;;;6.70;3.33;;;;;;;25.47;49.74;101252.31;5020766;28;20540;-71
2023/08/05 09:19:29;;;;;;;14.25;4.13;;;;;;;26.34;47.71;101238.44;5014241;28;20033;-72
2023/08/05 09:21:55;;;;;;;5.97;3.45;;;;;;;26.76;46.95;101241.69;5035342;28;20084;-72
2023/08/05 09:24:23;;;;;;;6.97;3.17;;;;;;;25.85;47.89;101243.50;5017073;28;20397;-72
2023/08/05 09:26:54;;;;;;;4.68;3.10;;;;;;;24.06;50.84;101244.19;5030086;28;20053;-70
2023/08/05 09:29:21;;;;;;;4.22;2.50;;;;;;;24.28;50.58;101232.22;5031439;28;20125;-71
2023/08/05 09:31:55;;;;;;;4.13;2.50;;;;;;;24.62;50.07;101238.13;5026993;28;20029;-74
2023/08/05 09:34:21;;;;;;;4.85;2.80;;;;;;;25.57;48.92;101221.28;5031240;28;20569;-73
2023/08/05 09:36:47;;;;;;;2.70;2.40;;;;;;;26.21;46.83;101219.66;5022297;28;20072;-72
2023/08/05 09:39:16;;;;;;;3.85;1.95;;;;;;;26.10;46.99;101233.81;5020780;28;20033;-71
2023/08/05 09:41:51;;;;;;;3.25;2.22;;;;;;;25.28;47.61;101238.38;5031987;28;20073;-71
2023/08/05 09:44:17;;;;;;;3.95;2.67;;;;;;;24.76;50.51;101230.13;5049088;28;20037;-71
2023/08/05 09:46:45;;;;;;;9.50;2.75;;;;;;;24.00;50.95;101228.53;5021871;28;20026;-71
2023/08/05 09:49:15;;;;;;;5.75;2.83;;;;;;;25.05;49.25;101219.38;5017126;28;20071;-73
2023/08/05 09:51:49;;;;;;;5.93;3.40;;;;;;;26.04;46.36;101210.16;5024964;28;20029;-71
2023/08/05 09:54:23;;;;;;;5.78;2.63;;;;;;;26.19;46.12;101201.03;5023174;28;20037;-71
2023/08/05 09:56:49;;;;;;;6.20;3.70;;;;;;;24.97;47.55;101211.00;5026574;28;20079;-71
2023/08/05 09:59:16;;;;;;;4.95;2.70;;;;;;;25.27;47.64;101207.25;5020033;28;20029;-71
2023/08/05 10:01:42;;;;;;;4.95;2.75;;;;;;;25.93;46.65;101210.00;5033271;28;20107;-71
2023/08/05 10:04:10;;;;;;;7.50;4.13;;;;;;;25.72;46.87;101197.97;5036157;28;20033;-72
2023/08/05 10:06:41;;;;;;;5.07;3.00;;;;;;;25.83;46.25;101197.25;5018914;28;20057;-72
2023/08/05 10:09:07;;;;;;;5.63;2.47;;;;;;;25.28;46.68;101200.94;5024562;28;20029;-71
2023/08/05 10:11:37;;;;;;;6.82;2.25;;;;;;;25.51;46.62;101197.63;5024034;28;20021;-71
2023/08/05 10:14:04;;;;;;;3.75;1.98;;;;;;;24.84;46.81;101201.09;5024156;28;20025;-71
2023/08/05 10:16:30;;;;;;;3.10;1.33;;;;;;;24.46;46.55;101199.00;5042614;28;20037;-71
2023/08/05 10:18:56;;;;;;;2.45;1.38;;;;;;;23.58;46.74;101192.78;5031683;28;20045;-71
2023/08/05 10:21:38;;;;;;;4.22;1.38;;;;;;;24.44;45.81;101182.22;5024056;28;20386;-71
2023/08/05 10:24:04;;;;;;;1.80;1.10;;;;;;;23.51;47.89;101189.63;5027162;28;20056;-71
2023/08/05 10:26:47;;;;;;;3.60;1.35;;;;;;;23.98;46.24;101185.06;5021190;28;20053;-71
2023/08/05 10:29:29;;;;;;;1.65;1.05;;;;;;;24.62;45.80;101184.69;5025857;28;20049;-71
2023/08/05 10:32:08;;;;;;;1.58;1.42;;;;;;;24.79;45.64;101176.47;5014893;28;20584;-72
2023/08/05 10:34:38;;;;;;;1.88;1.30;;;;;;;25.08;45.79;101181.72;5015196;28;20037;-73
2023/08/05 10:37:03;;;;;;;2.95;1.63;;;;;;;24.01;47.41;101179.53;5027697;28;20036;-73
2023/08/05 10:39:44;;;;;;;3.67;1.38;;;;;;;24.47;47.26;101184.69;5025698;28;20021;-73
2023/08/05 10:42:27;;;;;;;2.10;1.60;;;;;;;24.10;47.23;101172.78;5022030;28;20041;-74
2023/08/05 10:44:58;;;;;;;3.88;1.83;;;;;;;26.16;44.50;101166.44;5019823;28;20481;-72
2023/08/05 10:47:24;;;;;;;2.97;1.75;;;;;;;26.20;43.52;101170.59;5027939;28;20080;-73
2023/08/05 10:49:57;;;;;;;2.38;1.90;;;;;;;25.43;44.49;101167.84;5018004;28;20026;-73
2023/08/05 10:52:23;;;;;;;2.22;1.88;;;;;;;25.61;44.83;101162.19;5036676;28;20064;-72
2023/08/05 10:54:49;;;;;;;5.35;1.67;;;;;;;25.70;44.11;101170.44;5030338;28;20036;-73
2023/08/05 10:57:29;;;;;;;2.95;1.60;;;;;;;24.99;45.37;101169.81;5034017;28;20049;-72
2023/08/05 11:00:02;;;;;;;2.10;1.50;;;;;;;24.72;47.24;101165.31;5036880;28;20034;-73
2023/08/05 11:02:28;;;;;;;2.63;1.40;;;;;;;24.69;46.06;101164.66;5029225;28;20060;-73
2023/08/05 11:05:07;;;;;;;3.67;1.40;;;;;;;23.99;46.09;101165.44;5023416;28;20922;-73
2023/08/05 11:07:40;;;;;;;2.83;1.80;;;;;;;23.71;46.86;101157.28;5024772;28;20043;-73
2023/08/05 11:10:06;;;;;;;;;;;;;;;23.75;47.36;101165.09;5019893;28;20045;-73
2023/08/05 11:12:32;;;;;;;1.50;1.40;;;;;;;23.87;46.75;101167.00;5023378;28;19921;-73
2023/08/05 11:14:59;;;;;;;2.10;1.90;;;;;;;24.38;46.51;101155.88;5035604;28;20074;-73
2023/08/05 11:17:24;;;;;;;3.70;1.98;;;;;;;23.59;47.33;101157.13;5025891;28;20028;-73
2023/08/05 11:19:58;;;;;;;4.63;2.20;;;;;;;24.35;45.95;101145.41;5024661;28;20089;-73
2023/08/05 11:22:32;;;;;;;4.57;2.42;;;;;;;23.87;47.46;101151.00;5026008;28;20477;-72